createdAt,value
2023-04-21T00:02:21.820Z,20.90
2023-04-21T00:04:50.114Z,21.03
2023-04-21T00:07:16.962Z,20.80
2023-04-21T00:09:43.642Z,20.27
2023-04-21T00:12:10.310Z,20.87
2023-04-21T00:14:36.953Z,20.93
2023-04-21T00:17:03.610Z,21.53
2023-04-21T00:19:30.351Z,20.77
2023-04-21T00:21:59.757Z,20.33
2023-04-21T00:24:26.735Z,20.23
2023-04-21T00:26:53.322Z,20.30
2023-04-21T00:29:20.283Z,20.47
2023-04-21T00:31:47.085Z,20.13
2023-04-21T00:34:13.726Z,20.33
2023-04-21T00:36:40.476Z,21.20
2023-04-21T00:39:07.154Z,20.30
2023-04-21T00:41:35.409Z,21.03
2023-04-21T00:44:07.899Z,21.10
2023-04-21T00:46:35.911Z,20.60
2023-04-21T00:49:07.750Z,20.80
2023-04-21T00:51:35.901Z,21.00
2023-04-21T00:54:07.207Z,20.17
2023-04-21T00:56:36.514Z,18.73
2023-04-21T00:59:03.724Z,19.10
2023-04-21T01:01:31.845Z,20.83
2023-04-21T01:03:59.692Z,20.27
2023-04-21T01:06:34.283Z,19.27
2023-04-21T01:09:02.010Z,19.93
2023-04-21T01:11:28.674Z,21.07
2023-04-21T01:13:55.811Z,19.73
2023-04-21T01:16:24.180Z,19.90
2023-04-21T01:18:53.457Z,20.63
2023-04-21T01:21:21.950Z,20.53
2023-04-21T01:23:48.754Z,21.23
2023-04-21T01:26:19.301Z,19.57
2023-04-21T01:28:47.728Z,18.80
2023-04-21T01:31:17.274Z,19.10
2023-04-21T01:33:45.098Z,19.00
2023-04-21T01:36:11.947Z,19.77
2023-04-21T01:38:40.663Z,19.93
2023-04-21T01:41:07.626Z,19.73
2023-04-21T01:43:34.769Z,19.60
2023-04-21T01:46:01.524Z,19.50
2023-04-21T01:48:28.250Z,19.33
2023-04-21T01:50:54.888Z,17.90
2023-04-21T01:53:21.538Z,17.43
2023-04-21T01:55:48.329Z,17.43
2023-04-21T01:58:15.019Z,18.70
2023-04-21T02:00:41.735Z,18.57
2023-04-21T02:03:08.485Z,18.23
2023-04-21T02:05:35.166Z,18.10
2023-04-21T02:08:01.778Z,18.07
2023-04-21T02:10:28.480Z,17.47
2023-04-21T02:12:55.547Z,16.90
2023-04-21T02:15:22.264Z,18.97
2023-04-21T02:17:48.970Z,16.80
2023-04-21T02:20:15.701Z,18.50
2023-04-21T02:22:42.359Z,17.60
2023-04-21T02:25:09.308Z,17.27
2023-04-21T02:27:35.932Z,16.17
2023-04-21T02:30:02.702Z,16.70
2023-04-21T02:32:29.723Z,15.37
2023-04-21T02:34:56.572Z,16.67
2023-04-21T02:37:23.305Z,18.73
2023-04-21T02:39:50.170Z,18.80
2023-04-21T02:42:16.874Z,16.73
2023-04-21T02:44:43.683Z,18.13
2023-04-21T02:47:10.596Z,17.47
2023-04-21T02:49:42.158Z,17.07
2023-04-21T02:52:08.895Z,16.87
2023-04-21T02:54:35.627Z,17.30
2023-04-21T02:57:02.265Z,17.00
2023-04-21T02:59:29.269Z,17.90
2023-04-21T03:01:55.901Z,19.13
2023-04-21T03:04:24.479Z,18.80
2023-04-21T03:06:52.215Z,17.83
2023-04-21T03:09:19.093Z,19.30
2023-04-21T03:11:46.008Z,19.57
2023-04-21T03:14:12.701Z,18.73
2023-04-21T03:16:39.351Z,18.47
2023-04-21T03:19:06.096Z,19.37
2023-04-21T03:21:32.715Z,18.97
2023-04-21T03:23:59.370Z,18.67
2023-04-21T03:26:26.063Z,17.93
2023-04-21T03:28:52.670Z,18.37
2023-04-21T03:31:19.269Z,18.27
2023-04-21T03:33:45.990Z,16.70
2023-04-21T03:36:12.665Z,17.80
2023-04-21T03:38:39.356Z,18.53
2023-04-21T03:41:06.040Z,18.70
2023-04-21T03:43:32.790Z,17.27
2023-04-21T03:45:59.509Z,18.20
2023-04-21T03:48:28.178Z,18.13
2023-04-21T03:50:54.860Z,17.53
2023-04-21T03:53:21.509Z,17.90
2023-04-21T03:55:50.917Z,16.13
2023-04-21T03:58:17.628Z,17.80
2023-04-21T04:00:44.307Z,17.27
2023-04-21T04:03:11.239Z,16.43
2023-04-21T04:05:38.379Z,16.57
2023-04-21T04:08:05.461Z,17.27
2023-04-21T04:10:32.154Z,16.87
2023-04-21T04:12:58.955Z,17.60
2023-04-21T04:15:45.551Z,17.30
2023-04-21T04:18:14.088Z,17.63
2023-04-21T04:21:08.826Z,18.27
2023-04-21T04:23:55.700Z,16.67
2023-04-21T04:26:42.766Z,17.87
2023-04-21T04:29:24.853Z,18.03
2023-04-21T04:32:01.642Z,19.30
2023-04-21T04:34:40.388Z,19.23
2023-04-21T04:37:14.559Z,19.10
2023-04-21T04:39:41.646Z,18.97
2023-04-21T04:42:09.615Z,18.63
2023-04-21T04:44:37.068Z,18.90
2023-04-21T04:47:04.226Z,19.03
2023-04-21T04:49:31.146Z,17.77
2023-04-21T04:51:57.857Z,18.70
2023-04-21T04:54:25.194Z,19.93
2023-04-21T04:56:51.860Z,19.10
2023-04-21T04:59:19.060Z,18.93
2023-04-21T05:01:46.052Z,18.60
2023-04-21T05:04:16.481Z,18.07
2023-04-21T05:06:43.378Z,18.77
2023-04-21T05:09:10.381Z,16.63
2023-04-21T05:11:36.988Z,17.57
2023-04-21T05:14:03.824Z,16.70
2023-04-21T05:16:30.537Z,17.83
2023-04-21T05:19:01.545Z,16.77
2023-04-21T05:21:29.228Z,16.07
2023-04-21T05:23:56.898Z,15.87
2023-04-21T05:26:27.716Z,15.20
2023-04-21T05:28:58.419Z,15.07
2023-04-21T05:31:25.672Z,15.13
2023-04-21T05:33:52.758Z,14.20
2023-04-21T05:36:21.884Z,14.03
2023-04-21T05:38:48.571Z,13.90
2023-04-21T05:41:16.136Z,13.53
2023-04-21T05:43:42.836Z,12.87
2023-04-21T05:46:11.184Z,14.17
2023-04-21T05:48:38.004Z,12.73
2023-04-21T05:51:13.063Z,13.77
2023-04-21T05:53:40.322Z,13.17
2023-04-21T05:56:09.021Z,12.93
2023-04-21T05:58:36.320Z,12.67
2023-04-21T06:01:03.460Z,13.20
2023-04-21T06:03:34.271Z,13.43
2023-04-21T06:06:04.302Z,12.23
2023-04-21T06:08:31.018Z,12.60
2023-04-21T06:10:57.901Z,12.50
2023-04-21T06:13:24.707Z,11.63
2023-04-21T06:15:51.436Z,12.13
2023-04-21T06:18:18.181Z,11.73
2023-04-21T06:20:51.053Z,11.60
2023-04-21T06:23:18.004Z,11.17
2023-04-21T06:25:44.749Z,11.07
2023-04-21T06:28:11.554Z,11.97
2023-04-21T06:30:38.463Z,10.97
2023-04-21T06:33:06.797Z,10.83
2023-04-21T06:35:34.254Z,10.63
2023-04-21T06:38:01.182Z,10.57
2023-04-21T06:40:28.270Z,11.50
2023-04-21T06:42:55.311Z,10.70
2023-04-21T06:45:22.961Z,11.47
2023-04-21T06:47:50.454Z,10.20
2023-04-21T06:50:17.438Z,10.70
2023-04-21T06:52:44.054Z,10.43
2023-04-21T06:55:10.967Z,11.37
2023-04-21T06:57:37.673Z,10.83
2023-04-21T07:00:05.945Z,11.03
2023-04-21T07:02:32.776Z,10.40
2023-04-21T07:04:59.537Z,11.07
2023-04-21T07:07:26.237Z,11.23
2023-04-21T07:09:53.106Z,11.10
2023-04-21T07:12:19.861Z,12.00
2023-04-21T07:14:46.571Z,11.63
2023-04-21T07:17:13.213Z,10.47
2023-04-21T07:19:40.105Z,10.60
2023-04-21T07:22:07.068Z,10.63
2023-04-21T07:24:35.559Z,11.07
2023-04-21T07:27:05.020Z,11.27
2023-04-21T07:29:31.946Z,10.93
2023-04-21T07:31:58.860Z,10.67
2023-04-21T07:34:26.087Z,10.73
2023-04-21T07:36:53.255Z,9.80
2023-04-21T07:39:20.045Z,10.47
2023-04-21T07:41:47.037Z,9.83
2023-04-21T07:44:13.864Z,9.63
2023-04-21T07:46:40.627Z,9.80
2023-04-21T07:49:07.320Z,9.73
2023-04-21T07:51:34.389Z,8.80
2023-04-21T07:54:01.570Z,9.30
2023-04-21T07:56:28.301Z,9.47
2023-04-21T07:58:55.013Z,9.47
2023-04-21T08:01:24.046Z,9.23
2023-04-21T08:03:50.776Z,9.10
2023-04-21T08:06:17.804Z,9.10
2023-04-21T08:08:44.578Z,9.40
2023-04-21T08:11:11.378Z,8.47
2023-04-21T08:13:38.087Z,8.87
2023-04-21T08:16:05.004Z,8.80
2023-04-21T08:18:31.765Z,8.23
2023-04-21T08:20:58.597Z,7.80
2023-04-21T08:23:25.377Z,8.93
2023-04-21T08:25:52.080Z,8.80
2023-04-21T08:28:18.825Z,8.40
2023-04-21T08:30:45.558Z,8.80
2023-04-21T08:33:13.821Z,7.93
2023-04-21T08:35:55.068Z,7.30
2023-04-21T08:38:28.240Z,8.40
2023-04-21T08:40:56.302Z,7.80
2023-04-21T08:43:22.970Z,7.93
2023-04-21T08:45:51.226Z,7.70
2023-04-21T08:48:20.234Z,7.97
2023-04-21T08:50:49.304Z,7.40
2023-04-21T08:53:17.210Z,8.13
2023-04-21T08:55:47.817Z,7.43
2023-04-21T08:58:16.256Z,7.93
2023-04-21T09:00:42.920Z,7.67
2023-04-21T09:03:19.400Z,7.90
2023-04-21T09:05:59.389Z,7.80
2023-04-21T09:08:28.183Z,7.63
2023-04-21T09:10:55.678Z,7.40
2023-04-21T09:13:30.040Z,7.80
2023-04-21T09:15:56.968Z,7.60
2023-04-21T09:18:26.457Z,7.37
2023-04-21T09:21:05.072Z,8.20
2023-04-21T09:23:32.121Z,7.53
2023-04-21T09:25:58.883Z,7.60
2023-04-21T09:28:32.188Z,7.10
2023-04-21T09:30:59.117Z,7.27
2023-04-21T09:33:31.031Z,7.53
2023-04-21T09:36:03.462Z,7.77
2023-04-21T09:38:30.220Z,6.80
2023-04-21T09:41:00.274Z,7.60
2023-04-21T09:43:27.009Z,7.53
2023-04-21T09:45:56.047Z,7.23
2023-04-21T09:48:25.985Z,7.43
2023-04-21T09:51:22.992Z,7.03
2023-04-21T09:53:43.034Z,6.70
2023-04-21T09:56:14.585Z,6.17
2023-04-21T09:58:46.851Z,6.20
2023-04-21T10:01:14.870Z,7.40
2023-04-21T10:03:43.857Z,6.83
2023-04-21T10:06:12.229Z,6.13
2023-04-21T10:08:39.765Z,6.23
2023-04-21T10:11:07.690Z,6.93
2023-04-21T10:13:34.800Z,6.33
2023-04-21T10:16:08.035Z,5.83
2023-04-21T10:18:42.515Z,6.50
2023-04-21T10:21:13.168Z,5.87
2023-04-21T10:23:43.373Z,6.10
2023-04-21T10:26:25.047Z,5.33
2023-04-21T10:29:01.958Z,5.97
2023-04-21T10:31:36.530Z,5.83
2023-04-21T10:34:06.601Z,5.57
2023-04-21T10:36:56.202Z,5.70
2023-04-21T10:39:27.563Z,4.67
2023-04-21T10:41:59.108Z,4.70
2023-04-21T10:44:29.027Z,4.43
2023-04-21T10:46:58.707Z,4.53
2023-04-21T10:49:32.883Z,5.37
2023-04-21T10:51:59.749Z,5.07
2023-04-21T10:54:27.443Z,4.90
2023-04-21T10:56:56.209Z,4.90
2023-04-21T10:59:24.064Z,4.87
2023-04-21T11:01:50.791Z,5.23
2023-04-21T11:04:19.442Z,5.07
2023-04-21T11:07:12.692Z,4.37
2023-04-21T11:09:41.421Z,4.07
2023-04-21T11:12:15.337Z,4.33
2023-04-21T11:14:44.461Z,4.57
2023-04-21T11:17:13.581Z,4.33
2023-04-21T11:19:40.781Z,4.00
2023-04-21T11:22:07.657Z,4.60
2023-04-21T11:24:34.539Z,3.93
2023-04-21T11:27:02.237Z,4.27
2023-04-21T11:29:31.779Z,4.40
2023-04-21T11:31:59.303Z,3.97
2023-04-21T11:34:26.792Z,4.10
2023-04-21T11:36:53.767Z,4.00
2023-04-21T11:39:22.187Z,3.67
2023-04-21T11:41:51.391Z,4.00
2023-04-21T11:44:36.859Z,3.27
2023-04-21T11:47:13.910Z,4.07
2023-04-21T11:49:46.827Z,4.17
2023-04-21T11:52:33.455Z,3.90
2023-04-21T11:55:05.727Z,4.03
2023-04-21T11:57:34.153Z,3.70
2023-04-21T12:00:12.002Z,3.80
2023-04-21T12:02:39.333Z,3.60
2023-04-21T12:05:13.901Z,3.67
2023-04-21T12:07:51.987Z,4.07
2023-04-21T12:10:20.999Z,4.00
2023-04-21T12:12:48.315Z,4.13
2023-04-21T12:15:20.457Z,4.20
2023-04-21T12:17:49.357Z,3.30
2023-04-21T12:20:18.426Z,4.20
2023-04-21T12:22:45.392Z,3.60
2023-04-21T12:25:12.677Z,4.07
2023-04-21T12:27:57.730Z,3.90
2023-04-21T12:30:24.560Z,3.80
2023-04-21T12:32:52.289Z,4.07
2023-04-21T12:35:19.214Z,3.67
2023-04-21T12:37:45.950Z,4.70
2023-04-21T12:40:12.687Z,4.20
2023-04-21T12:42:39.645Z,4.20
2023-04-21T12:45:07.067Z,4.10
2023-04-21T12:47:34.980Z,4.20
2023-04-21T12:50:01.755Z,5.00
2023-04-21T12:52:28.483Z,4.50
2023-04-21T12:54:55.313Z,4.60
2023-04-21T12:57:22.007Z,4.40
2023-04-21T12:59:49.239Z,4.27
2023-04-21T13:02:16.322Z,4.53
2023-04-21T13:04:43.427Z,4.40
2023-04-21T13:07:10.592Z,3.93
2023-04-21T13:09:37.306Z,4.40
2023-04-21T13:12:04.099Z,4.80
2023-04-21T13:14:30.841Z,4.90
2023-04-21T13:16:57.570Z,4.20
2023-04-21T13:19:24.517Z,4.50
2023-04-21T13:21:54.153Z,4.27
2023-04-21T13:24:21.669Z,4.20
2023-04-21T13:26:48.444Z,4.37
2023-04-21T13:29:15.662Z,4.33
2023-04-21T13:31:42.339Z,4.00
2023-04-21T13:34:09.091Z,4.23
2023-04-21T13:36:35.843Z,3.73
2023-04-21T13:39:05.785Z,4.50
2023-04-21T13:41:32.726Z,4.17
2023-04-21T13:43:59.642Z,4.20
2023-04-21T13:46:26.927Z,4.00
2023-04-21T13:48:53.864Z,4.40
2023-04-21T13:51:21.154Z,3.93
2023-04-21T13:53:48.209Z,4.33
2023-04-21T13:56:15.201Z,4.00
2023-04-21T13:58:42.322Z,4.00
2023-04-21T14:01:09.517Z,3.70
2023-04-21T14:03:36.511Z,4.07
2023-04-21T14:06:03.525Z,4.37
2023-04-21T14:08:30.395Z,3.63
2023-04-21T14:10:57.886Z,4.17
2023-04-21T14:13:36.076Z,3.70
2023-04-21T14:16:07.715Z,3.80
2023-04-21T14:18:34.582Z,4.00
2023-04-21T14:21:01.247Z,3.73
2023-04-21T14:23:28.208Z,3.70
2023-04-21T14:25:55.288Z,3.90
2023-04-21T14:28:22.234Z,4.07
2023-04-21T14:30:49.054Z,3.80
2023-04-21T14:33:15.908Z,4.13
2023-04-21T14:35:42.811Z,4.50
2023-04-21T14:38:09.484Z,3.97
2023-04-21T14:40:36.231Z,4.00
2023-04-21T14:43:02.956Z,4.10
2023-04-21T14:45:29.857Z,3.93
2023-04-21T14:47:57.070Z,4.53
2023-04-21T14:50:23.838Z,4.60
2023-04-21T14:52:50.799Z,3.73
2023-04-21T14:55:17.729Z,4.20
2023-04-21T14:57:44.397Z,4.50
2023-04-21T15:00:12.366Z,4.00
2023-04-21T15:02:42.030Z,4.20
2023-04-21T15:05:09.812Z,4.30
2023-04-21T15:07:36.676Z,3.90
2023-04-21T15:10:03.572Z,4.20
2023-04-21T15:12:30.430Z,4.30
2023-04-21T15:14:57.120Z,4.27
2023-04-21T15:17:24.091Z,4.10
2023-04-21T15:19:51.098Z,3.70
2023-04-21T15:22:17.941Z,4.07
2023-04-21T15:24:46.089Z,4.00
2023-04-21T15:27:12.755Z,3.93
2023-04-21T15:29:39.549Z,4.20
2023-04-21T15:32:06.230Z,4.23
2023-04-21T15:34:32.935Z,4.10
2023-04-21T15:36:59.672Z,4.47
2023-04-21T15:39:26.488Z,4.23
2023-04-21T15:41:53.752Z,3.93
2023-04-21T15:44:20.775Z,4.13
2023-04-21T15:46:47.888Z,4.10
2023-04-21T15:49:14.671Z,4.13
2023-04-21T15:51:42.175Z,4.50
2023-04-21T15:54:10.331Z,3.93
2023-04-21T15:56:37.235Z,3.63
2023-04-21T15:59:04.798Z,4.03
2023-04-21T16:01:31.574Z,4.30
2023-04-21T16:03:59.213Z,4.10
2023-04-21T16:06:26.596Z,4.17
2023-04-21T16:08:53.474Z,4.40
2023-04-21T16:11:20.182Z,4.00
2023-04-21T16:13:47.011Z,4.40
2023-04-21T16:16:13.728Z,4.53
2023-04-21T16:18:40.686Z,4.07
2023-04-21T16:21:07.436Z,4.53
2023-04-21T16:23:34.232Z,4.60
2023-04-21T16:26:02.133Z,4.10
2023-04-21T16:28:28.873Z,4.23
2023-04-21T16:30:55.691Z,4.27
2023-04-21T16:33:22.429Z,4.27
2023-04-21T16:35:52.124Z,4.00
2023-04-21T16:38:19.149Z,4.77
2023-04-21T16:40:45.922Z,4.53
2023-04-21T16:43:12.869Z,4.30
2023-04-21T16:45:39.586Z,4.23
2023-04-21T16:48:06.551Z,4.20
2023-04-21T16:50:33.713Z,4.70
2023-04-21T16:53:00.742Z,3.37
2023-04-21T16:55:28.414Z,4.73
2023-04-21T16:57:55.621Z,4.17
2023-04-21T17:00:22.419Z,3.93
2023-04-21T17:02:49.308Z,4.00
2023-04-21T17:05:16.583Z,4.10
2023-04-21T17:07:44.658Z,3.90
2023-04-21T17:10:11.700Z,4.40
2023-04-21T17:12:39.136Z,4.37
2023-04-21T17:15:06.666Z,4.30
2023-04-21T17:17:41.572Z,4.03
2023-04-21T17:20:11.184Z,3.87
2023-04-21T17:22:38.979Z,4.13
2023-04-21T17:25:06.291Z,3.80
2023-04-21T17:27:35.908Z,4.07
2023-04-21T17:30:04.805Z,4.13
2023-04-21T17:32:33.621Z,4.30
2023-04-21T17:35:01.075Z,4.00
2023-04-21T17:37:28.967Z,3.77
2023-04-21T17:39:56.044Z,3.83
2023-04-21T17:42:22.760Z,3.80
2023-04-21T17:44:49.600Z,3.90
2023-04-21T17:47:17.043Z,3.90
2023-04-21T17:49:43.803Z,4.10
2023-04-21T17:52:10.419Z,3.90
2023-04-21T17:54:37.400Z,4.60
2023-04-21T17:57:04.485Z,3.90
2023-04-21T17:59:31.381Z,4.77
2023-04-21T18:01:59.126Z,4.20
2023-04-21T18:04:27.378Z,4.27
2023-04-21T18:06:54.172Z,4.10
2023-04-21T18:09:20.996Z,4.10
2023-04-21T18:11:47.666Z,4.47
2023-04-21T18:14:14.837Z,4.57
2023-04-21T18:16:41.482Z,4.20
2023-04-21T18:19:08.184Z,4.13
2023-04-21T18:21:35.313Z,4.93
2023-04-21T18:24:02.147Z,3.97
2023-04-21T18:26:29.024Z,4.30
2023-04-21T18:28:58.469Z,4.13
2023-04-21T18:31:29.939Z,3.97
2023-04-21T18:33:57.416Z,4.20
2023-04-21T18:36:24.215Z,4.50
2023-04-21T18:38:50.933Z,3.67
2023-04-21T18:41:17.782Z,4.33
2023-04-21T18:43:45.030Z,4.40
2023-04-21T18:46:11.958Z,4.23
2023-04-21T18:48:39.271Z,4.87
2023-04-21T18:51:06.106Z,4.87
2023-04-21T18:53:33.757Z,4.47
2023-04-21T18:56:00.937Z,4.97
2023-04-21T18:58:28.009Z,4.70
2023-04-21T19:00:54.961Z,5.07
2023-04-21T19:03:22.488Z,4.50
2023-04-21T19:05:49.366Z,5.00
2023-04-21T19:10:42.962Z,5.10
2023-04-21T19:13:10.318Z,4.83
2023-04-21T19:15:37.050Z,4.60
2023-04-21T19:18:03.905Z,5.37
2023-04-21T19:20:30.834Z,4.37
2023-04-21T19:22:57.567Z,4.67
2023-04-21T19:25:24.302Z,4.37
2023-04-21T19:27:51.599Z,5.37
2023-04-21T19:30:18.475Z,4.87
2023-04-21T19:32:45.128Z,4.60
2023-04-21T19:35:11.868Z,4.70
2023-04-21T19:37:38.944Z,4.90
2023-04-21T19:40:06.440Z,5.20
2023-04-21T19:42:33.103Z,5.63
2023-04-21T19:44:59.901Z,5.03
2023-04-21T19:47:26.970Z,5.20
2023-04-21T19:49:53.932Z,4.83
2023-04-21T19:52:20.746Z,5.33
2023-04-21T19:54:47.608Z,4.87
2023-04-21T19:57:14.217Z,5.03
2023-04-21T19:59:41.083Z,5.40
2023-04-21T20:02:08.329Z,5.60
2023-04-21T20:04:38.183Z,4.93
2023-04-21T20:07:05.261Z,5.40
2023-04-21T20:09:31.919Z,5.10
2023-04-21T20:11:58.642Z,4.90
2023-04-21T20:14:25.291Z,5.43
2023-04-21T20:16:52.024Z,5.50
2023-04-21T20:19:22.911Z,5.70
2023-04-21T20:21:50.184Z,5.07
2023-04-21T20:24:17.458Z,4.90
2023-04-21T20:26:44.338Z,5.47
2023-04-21T20:29:11.066Z,5.80
2023-04-21T20:31:38.092Z,5.40
2023-04-21T20:34:04.803Z,5.40
2023-04-21T20:36:31.503Z,5.33
2023-04-21T20:38:59.917Z,5.47
2023-04-21T20:41:27.941Z,5.30
2023-04-21T20:43:56.268Z,5.80
2023-04-21T20:46:23.862Z,5.77
2023-04-21T20:48:51.149Z,5.70
2023-04-21T20:51:17.876Z,5.40
2023-04-21T20:53:44.802Z,5.13
2023-04-21T20:56:11.467Z,5.37
2023-04-21T20:58:38.238Z,5.93
2023-04-21T21:01:04.996Z,5.70
2023-04-21T21:03:31.885Z,6.07
2023-04-21T21:05:58.884Z,6.60
2023-04-21T21:08:25.645Z,6.27
2023-04-21T21:10:52.291Z,6.63
2023-04-21T21:13:18.992Z,6.10
2023-04-21T21:15:46.774Z,5.90
2023-04-21T21:18:13.511Z,7.00
2023-04-21T21:20:40.271Z,6.30
2023-04-21T21:23:07.610Z,6.87
2023-04-21T21:25:34.376Z,7.03
2023-04-21T21:28:01.550Z,6.37
2023-04-21T21:30:28.298Z,6.60
2023-04-21T21:32:56.010Z,6.87
2023-04-21T21:35:23.052Z,7.17
2023-04-21T21:37:49.893Z,6.43
2023-04-21T21:40:16.958Z,7.50
2023-04-21T21:42:43.630Z,6.87
2023-04-21T21:45:11.215Z,6.90
2023-04-21T21:47:41.636Z,7.40
2023-04-21T21:50:11.327Z,7.20
2023-04-21T21:52:38.118Z,7.27
2023-04-21T21:55:05.373Z,7.67
2023-04-21T21:57:32.068Z,6.80
2023-04-21T22:00:00.657Z,8.10
2023-04-21T22:02:27.497Z,7.13
2023-04-21T22:04:55.617Z,7.70
2023-04-21T22:07:22.412Z,7.80
2023-04-21T22:09:49.453Z,7.20
2023-04-21T22:12:16.236Z,7.37
2023-04-21T22:14:43.070Z,8.27
2023-04-21T22:17:10.519Z,7.90
2023-04-21T22:19:38.334Z,7.40
2023-04-21T22:22:05.477Z,8.13
2023-04-21T22:24:32.167Z,7.80
2023-04-21T22:26:58.865Z,7.93
2023-04-21T22:29:25.607Z,8.43
2023-04-21T22:31:52.711Z,8.43
2023-04-21T22:34:19.905Z,7.97
2023-04-21T22:36:46.602Z,8.57
2023-04-21T22:39:13.452Z,8.97
2023-04-21T22:41:40.130Z,8.57
2023-04-21T22:44:06.824Z,7.50
2023-04-21T22:46:33.786Z,8.47
2023-04-21T22:49:02.418Z,8.47
2023-04-21T22:51:29.839Z,8.17
2023-04-21T22:53:56.776Z,8.33
2023-04-21T22:56:23.506Z,8.87
2023-04-21T22:58:50.296Z,8.03
2023-04-21T23:01:17.314Z,8.57
2023-04-21T23:03:44.138Z,8.30
2023-04-21T23:06:10.974Z,8.80
2023-04-21T23:08:37.689Z,8.67
2023-04-21T23:11:04.398Z,8.73
2023-04-21T23:13:32.882Z,8.70
2023-04-21T23:15:59.640Z,9.37
2023-04-21T23:18:26.620Z,8.40
2023-04-21T23:20:53.560Z,9.63
2023-04-21T23:23:20.285Z,9.63
2023-04-21T23:25:46.973Z,9.30
2023-04-21T23:28:13.638Z,8.80
2023-04-21T23:30:40.427Z,9.27
2023-04-21T23:33:07.302Z,9.73
2023-04-21T23:35:34.039Z,9.43
2023-04-21T23:38:00.686Z,9.07
2023-04-21T23:40:27.394Z,8.47
2023-04-21T23:42:54.055Z,9.30
2023-04-21T23:45:20.965Z,8.97
2023-04-21T23:47:47.773Z,9.80
2023-04-21T23:50:14.586Z,9.27
2023-04-21T23:52:42.316Z,9.50
2023-04-21T23:55:10.031Z,8.77
2023-04-21T23:57:37.074Z,8.70
